sensor_id;sensor_type;location;lat;lon;timestamp;pressure;altitude;pressure_sealevel;temperature;humidity
27958;BME280;15295;42.658;23.374;2022-09-17T00:00:22;93809.16;;;22.96;58.92
27958;BME280;15295;42.658;23.374;2022-09-17T00:08:01;93796.84;;;22.77;59.27
27958;BME280;15295;42.658;23.374;2022-09-17T00:10:36;93800.38;;;22.78;58.94
27958;BME280;15295;42.658;23.374;2022-09-17T00:13:13;93778.50;;;22.65;59.15
27958;BME280;15295;42.658;23.374;2022-09-17T00:15:41;93788.16;;;22.70;59.16
27958;BME280;15295;42.658;23.374;2022-09-17T00:18:28;93744.28;;;22.59;59.32
27958;BME280;15295;42.658;23.374;2022-09-17T00:21:46;93792.56;;;22.82;59.05
27958;BME280;15295;42.658;23.374;2022-09-17T00:24:13;93766.25;;;22.83;59.12
27958;BME280;15295;42.658;23.374;2022-09-17T00:27:08;93778.44;;;22.91;58.86
27958;BME280;15295;42.658;23.374;2022-09-17T00:30:04;93771.91;;;22.94;58.80
27958;BME280;15295;42.658;23.374;2022-09-17T00:32:40;93750.38;;;22.94;58.80
27958;BME280;15295;42.658;23.374;2022-09-17T00:37:58;93790.47;;;23.08;58.67
27958;BME280;15295;42.658;23.374;2022-09-17T00:40:24;93759.47;;;22.95;58.01
27958;BME280;15295;42.658;23.374;2022-09-17T00:42:56;93799.06;;;23.05;57.96
27958;BME280;15295;42.658;23.374;2022-09-17T00:45:22;93772.88;;;22.91;58.07
27958;BME280;15295;42.658;23.374;2022-09-17T00:48:04;93774.09;;;22.84;58.39
27958;BME280;15295;42.658;23.374;2022-09-17T00:53:04;93774.78;;;22.74;58.40
27958;BME280;15295;42.658;23.374;2022-09-17T00:55:42;93788.28;;;22.86;58.40
27958;BME280;15295;42.658;23.374;2022-09-17T00:58:12;93779.13;;;22.80;58.36
27958;BME280;15295;42.658;23.374;2022-09-17T01:00:41;93809.16;;;22.96;58.33
27958;BME280;15295;42.658;23.374;2022-09-17T01:03:12;93822.81;;;22.94;58.50
27958;BME280;15295;42.658;23.374;2022-09-17T01:19:49;93769.13;;;22.99;58.59
27958;BME280;15295;42.658;23.374;2022-09-17T01:28:52;93804.63;;;22.73;59.02
27958;BME280;15295;42.658;23.374;2022-09-17T01:34:27;93800.78;;;22.65;59.67
27958;BME280;15295;42.658;23.374;2022-09-17T01:37:11;93759.81;;;22.46;59.50
27958;BME280;15295;42.658;23.374;2022-09-17T01:40:04;93788.53;;;22.57;59.63
27958;BME280;15295;42.658;23.374;2022-09-17T01:43:04;93788.41;;;22.66;59.50
27958;BME280;15295;42.658;23.374;2022-09-17T01:46:03;93779.50;;;22.62;59.87
27958;BME280;15295;42.658;23.374;2022-09-17T01:48:37;93769.44;;;22.70;59.54
27958;BME280;15295;42.658;23.374;2022-09-17T01:51:06;93741.06;;;22.66;59.63
27958;BME280;15295;42.658;23.374;2022-09-17T01:56:08;93727.56;;;22.59;60.07
27958;BME280;15295;42.658;23.374;2022-09-17T01:58:52;93724.59;;;22.68;59.37
27958;BME280;15295;42.658;23.374;2022-09-17T02:01:30;93747.88;;;22.65;59.41
27958;BME280;15295;42.658;23.374;2022-09-17T02:04:34;93774.50;;;22.72;59.58
27958;BME280;15295;42.658;23.374;2022-09-17T02:09:58;93732.97;;;22.68;59.14
27958;BME280;15295;42.658;23.374;2022-09-17T02:12:53;93719.84;;;22.74;59.07
27958;BME280;15295;42.658;23.374;2022-09-17T02:15:33;93730.00;;;22.77;58.85
27958;BME280;15295;42.658;23.374;2022-09-17T02:20:58;93634.81;;;22.48;59.41
27958;BME280;15295;42.658;23.374;2022-09-17T02:23:33;93650.78;;;22.47;59.18
27958;BME280;15295;42.658;23.374;2022-09-17T02:26:05;93661.63;;;22.45;59.51
27958;BME280;15295;42.658;23.374;2022-09-17T02:28:57;93628.22;;;22.45;59.06
27958;BME280;15295;42.658;23.374;2022-09-17T02:34:12;93627.63;;;22.30;59.45
27958;BME280;15295;42.658;23.374;2022-09-17T02:36:51;93560.06;;;21.93;59.92
27958;BME280;15295;42.658;23.374;2022-09-17T02:39:56;93658.28;;;22.36;59.42
27958;BME280;15295;42.658;23.374;2022-09-17T02:48:23;93654.34;;;22.53;58.83
27958;BME280;15295;42.658;23.374;2022-09-17T02:51:32;93624.59;;;22.34;58.58
27958;BME280;15295;42.658;23.374;2022-09-17T02:54:30;93685.81;;;22.59;58.53
27958;BME280;15295;42.658;23.374;2022-09-17T03:02:38;93660.44;;;22.57;59.09
27958;BME280;15295;42.658;23.374;2022-09-17T03:05:08;93654.47;;;22.64;58.59
27958;BME280;15295;42.658;23.374;2022-09-17T03:07:35;93639.41;;;22.56;58.53
27958;BME280;15295;42.658;23.374;2022-09-17T03:10:17;93630.00;;;22.48;58.65
27958;BME280;15295;42.658;23.374;2022-09-17T03:13:00;93622.97;;;22.58;58.88
27958;BME280;15295;42.658;23.374;2022-09-17T03:20:36;93613.94;;;22.63;58.49
27958;BME280;15295;42.658;23.374;2022-09-17T03:23:04;93608.09;;;22.61;58.29
27958;BME280;15295;42.658;23.374;2022-09-17T03:25:33;93634.28;;;22.80;58.01
27958;BME280;15295;42.658;23.374;2022-09-17T03:28:02;93616.00;;;22.68;57.89
27958;BME280;15295;42.658;23.374;2022-09-17T03:30:31;93621.38;;;22.83;57.71
27958;BME280;15295;42.658;23.374;2022-09-17T03:33:07;93612.31;;;22.88;56.78
27958;BME280;15295;42.658;23.374;2022-09-17T03:38:21;93599.53;;;22.70;57.15
27958;BME280;15295;42.658;23.374;2022-09-17T03:41:03;93635.84;;;22.87;56.95
27958;BME280;15295;42.658;23.374;2022-09-17T03:43:29;93619.53;;;22.69;57.80
27958;BME280;15295;42.658;23.374;2022-09-17T03:45:55;93594.19;;;22.61;57.76
27958;BME280;15295;42.658;23.374;2022-09-17T03:48:23;93592.97;;;22.73;57.78
27958;BME280;15295;42.658;23.374;2022-09-17T03:51:13;93606.16;;;22.73;58.20
27958;BME280;15295;42.658;23.374;2022-09-17T03:53:38;93565.72;;;22.46;58.07
27958;BME280;15295;42.658;23.374;2022-09-17T04:01:53;93596.69;;;22.59;58.32
27958;BME280;15295;42.658;23.374;2022-09-17T04:04:20;93585.00;;;22.55;58.19
27958;BME280;15295;42.658;23.374;2022-09-17T04:12:49;93614.50;;;22.73;57.52
27958;BME280;15295;42.658;23.374;2022-09-17T04:15:15;93631.28;;;22.89;57.73
27958;BME280;15295;42.658;23.374;2022-09-17T04:20:14;93607.16;;;22.75;57.00
27958;BME280;15295;42.658;23.374;2022-09-17T04:22:43;93643.94;;;22.90;56.91
27958;BME280;15295;42.658;23.374;2022-09-17T04:25:20;93679.19;;;22.99;57.38
27958;BME280;15295;42.658;23.374;2022-09-17T04:27:50;93688.03;;;22.92;57.32
27958;BME280;15295;42.658;23.374;2022-09-17T04:30:35;93706.59;;;23.06;57.49
27958;BME280;15295;42.658;23.374;2022-09-17T04:33:03;93736.00;;;23.07;57.35
27958;BME280;15295;42.658;23.374;2022-09-17T04:35:29;93710.53;;;22.88;57.81
27958;BME280;15295;42.658;23.374;2022-09-17T04:41:02;93736.75;;;23.08;58.02
27958;BME280;15295;42.658;23.374;2022-09-17T04:48:39;93753.88;;;22.89;58.13
27958;BME280;15295;42.658;23.374;2022-09-17T04:51:07;93769.56;;;22.87;58.26
27958;BME280;15295;42.658;23.374;2022-09-17T04:53:58;93742.88;;;22.75;58.19
27958;BME280;15295;42.658;23.374;2022-09-17T04:56:39;93773.88;;;22.88;58.58
27958;BME280;15295;42.658;23.374;2022-09-17T04:59:32;93799.28;;;23.01;58.07
27958;BME280;15295;42.658;23.374;2022-09-17T05:02:21;93801.75;;;22.88;58.91
27958;BME280;15295;42.658;23.374;2022-09-17T05:04:53;93780.88;;;22.78;58.85
27958;BME280;15295;42.658;23.374;2022-09-17T05:07:58;93785.28;;;22.90;59.05
27958;BME280;15295;42.658;23.374;2022-09-17T05:10:28;93792.69;;;22.98;59.13
27958;BME280;15295;42.658;23.374;2022-09-17T05:13:07;93791.78;;;23.13;58.49
27958;BME280;15295;42.658;23.374;2022-09-17T05:15:33;93728.47;;;22.76;58.62
27958;BME280;15295;42.658;23.374;2022-09-17T05:18:00;93760.06;;;23.05;58.81
27958;BME280;15295;42.658;23.374;2022-09-17T05:20:38;93778.09;;;23.15;58.71
27958;BME280;15295;42.658;23.374;2022-09-17T05:23:43;93739.75;;;22.98;58.94
27958;BME280;15295;42.658;23.374;2022-09-17T05:26:09;93747.91;;;23.08;59.23
27958;BME280;15295;42.658;23.374;2022-09-17T05:28:41;93746.47;;;23.23;58.99
27958;BME280;15295;42.658;23.374;2022-09-17T05:31:07;93705.84;;;23.06;58.65
27958;BME280;15295;42.658;23.374;2022-09-17T05:36:01;93756.44;;;23.35;58.87
27958;BME280;15295;42.658;23.374;2022-09-17T05:38:32;93727.38;;;23.05;59.34
27958;BME280;15295;42.658;23.374;2022-09-17T05:40:57;93769.03;;;23.25;58.86
27958;BME280;15295;42.658;23.374;2022-09-17T05:43:26;93743.59;;;23.07;59.26
27958;BME280;15295;42.658;23.374;2022-09-17T05:45:53;93740.41;;;23.25;59.33
27958;BME280;15295;42.658;23.374;2022-09-17T05:48:43;93756.22;;;23.39;58.84
27958;BME280;15295;42.658;23.374;2022-09-17T05:51:11;93750.81;;;23.30;59.10
27958;BME280;15295;42.658;23.374;2022-09-17T05:53:37;93767.34;;;23.33;58.84
27958;BME280;15295;42.658;23.374;2022-09-17T05:56:03;93783.66;;;23.51;58.57
27958;BME280;15295;42.658;23.374;2022-09-17T05:58:29;93767.41;;;23.44;58.77
27958;BME280;15295;42.658;23.374;2022-09-17T06:01:00;93757.81;;;23.51;58.20
27958;BME280;15295;42.658;23.374;2022-09-17T06:03:28;93756.28;;;23.50;57.89
27958;BME280;15295;42.658;23.374;2022-09-17T06:06:15;93747.66;;;23.48;58.37
27958;BME280;15295;42.658;23.374;2022-09-17T06:08:41;93768.19;;;23.50;58.36
27958;BME280;15295;42.658;23.374;2022-09-17T06:11:07;93749.41;;;23.45;58.35
27958;BME280;15295;42.658;23.374;2022-09-17T06:13:33;93758.25;;;23.38;58.28
27958;BME280;15295;42.658;23.374;2022-09-17T06:15:59;93770.16;;;23.39;58.32
27958;BME280;15295;42.658;23.374;2022-09-17T06:18:26;93778.44;;;23.28;58.99
27958;BME280;15295;42.658;23.374;2022-09-17T06:21:23;93726.78;;;22.90;59.11
27958;BME280;15295;42.658;23.374;2022-09-17T06:32:08;93833.03;;;23.40;59.07
27958;BME280;15295;42.658;23.374;2022-09-17T06:34:42;93792.28;;;23.11;59.17
27958;BME280;15295;42.658;23.374;2022-09-17T06:40:22;93834.25;;;23.33;58.45
27958;BME280;15295;42.658;23.374;2022-09-17T06:42:59;93865.22;;;23.77;58.16
27958;BME280;15295;42.658;23.374;2022-09-17T06:46:09;93859.19;;;23.90;57.64
27958;BME280;15295;42.658;23.374;2022-09-17T06:48:36;93835.06;;;23.87;58.03
27958;BME280;15295;42.658;23.374;2022-09-17T06:51:05;93827.13;;;23.74;58.50
27958;BME280;15295;42.658;23.374;2022-09-17T06:53:31;93825.69;;;23.90;57.76
27958;BME280;15295;42.658;23.374;2022-09-17T06:56:04;93820.63;;;23.89;57.38
27958;BME280;15295;42.658;23.374;2022-09-17T06:58:29;93831.50;;;23.87;57.58
27958;BME280;15295;42.658;23.374;2022-09-17T07:00:59;93819.13;;;23.99;57.48
27958;BME280;15295;42.658;23.374;2022-09-17T07:03:28;93820.88;;;23.96;57.71
27958;BME280;15295;42.658;23.374;2022-09-17T07:06:02;93808.69;;;23.88;57.45
27958;BME280;15295;42.658;23.374;2022-09-17T07:08:27;93790.66;;;23.84;57.14
27958;BME280;15295;42.658;23.374;2022-09-17T07:10:58;93781.81;;;23.96;57.75
27958;BME280;15295;42.658;23.374;2022-09-17T07:13:29;93773.00;;;24.09;58.06
27958;BME280;15295;42.658;23.374;2022-09-17T07:15:59;93757.34;;;24.33;57.72
27958;BME280;15295;42.658;23.374;2022-09-17T07:18:26;93748.69;;;24.37;57.01
27958;BME280;15295;42.658;23.374;2022-09-17T07:20:56;93742.88;;;24.51;56.77
27958;BME280;15295;42.658;23.374;2022-09-17T07:23:26;93733.75;;;24.79;55.92
27958;BME280;15295;42.658;23.374;2022-09-17T07:25:54;93719.03;;;24.78;55.22
27958;BME280;15295;42.658;23.374;2022-09-17T07:28:19;93729.16;;;25.03;55.05
27958;BME280;15295;42.658;23.374;2022-09-17T07:30:45;93733.72;;;25.12;54.96
27958;BME280;15295;42.658;23.374;2022-09-17T07:33:14;93738.25;;;25.43;54.93
27958;BME280;15295;42.658;23.374;2022-09-17T07:35:39;93732.31;;;25.63;53.97
27958;BME280;15295;42.658;23.374;2022-09-17T07:38:05;93741.63;;;25.87;52.92
27958;BME280;15295;42.658;23.374;2022-09-17T07:40:30;93750.94;;;26.07;52.57
27958;BME280;15295;42.658;23.374;2022-09-17T07:42:56;93747.59;;;26.14;52.37
27958;BME280;15295;42.658;23.374;2022-09-17T07:45:22;93735.38;;;26.17;51.87
27958;BME280;15295;42.658;23.374;2022-09-17T07:47:49;93732.06;;;26.18;51.60
27958;BME280;15295;42.658;23.374;2022-09-17T07:50:14;93746.38;;;26.03;51.33
27958;BME280;15295;42.658;23.374;2022-09-17T07:52:47;93743.53;;;26.15;51.23
27958;BME280;15295;42.658;23.374;2022-09-17T07:55:13;93734.84;;;26.18;51.83
27958;BME280;15295;42.658;23.374;2022-09-17T07:57:39;93734.09;;;26.18;51.34
27958;BME280;15295;42.658;23.374;2022-09-17T08:00:05;93721.63;;;26.19;50.96
27958;BME280;15295;42.658;23.374;2022-09-17T08:02:31;93693.22;;;25.92;51.08
27958;BME280;15295;42.658;23.374;2022-09-17T08:04:56;93727.28;;;26.13;51.38
27958;BME280;15295;42.658;23.374;2022-09-17T08:07:22;93729.75;;;26.22;50.91
27958;BME280;15295;42.658;23.374;2022-09-17T08:09:47;93722.81;;;26.29;50.20
27958;BME280;15295;42.658;23.374;2022-09-17T08:12:45;93719.63;;;26.49;49.54
27958;BME280;15295;42.658;23.374;2022-09-17T08:15:17;93717.22;;;26.64;49.60
27958;BME280;15295;42.658;23.374;2022-09-17T08:17:44;93712.31;;;26.75;48.51
27958;BME280;15295;42.658;23.374;2022-09-17T08:20:10;93691.19;;;26.69;48.62
27958;BME280;15295;42.658;23.374;2022-09-17T08:22:41;93698.81;;;26.74;48.97
27958;BME280;15295;42.658;23.374;2022-09-17T08:25:39;93700.97;;;26.92;48.72
27958;BME280;15295;42.658;23.374;2022-09-17T08:28:06;93705.97;;;26.99;47.88
27958;BME280;15295;42.658;23.374;2022-09-17T08:30:39;93690.91;;;27.02;47.62
27958;BME280;15295;42.658;23.374;2022-09-17T08:33:06;93689.75;;;26.92;47.74
27958;BME280;15295;42.658;23.374;2022-09-17T08:35:33;93702.50;;;27.17;47.50
27958;BME280;15295;42.658;23.374;2022-09-17T08:37:58;93693.19;;;27.04;47.17
27958;BME280;15295;42.658;23.374;2022-09-17T08:40:24;93684.97;;;27.11;47.43
27958;BME280;15295;42.658;23.374;2022-09-17T08:43:01;93707.22;;;27.28;47.01
27958;BME280;15295;42.658;23.374;2022-09-17T08:45:27;93697.91;;;27.14;47.22
27958;BME280;15295;42.658;23.374;2022-09-17T08:48:02;93668.47;;;27.02;47.24
27958;BME280;15295;42.658;23.374;2022-09-17T08:50:42;93667.59;;;27.13;46.56
27958;BME280;15295;42.658;23.374;2022-09-17T08:53:56;93683.25;;;27.27;46.50
27958;BME280;15295;42.658;23.374;2022-09-17T08:56:30;93686.69;;;27.14;46.70
27958;BME280;15295;42.658;23.374;2022-09-17T08:59:00;93706.47;;;27.27;46.72
27958;BME280;15295;42.658;23.374;2022-09-17T09:06:49;93678.41;;;27.03;46.73
27958;BME280;15295;42.658;23.374;2022-09-17T09:09:26;93686.81;;;27.03;46.80
27958;BME280;15295;42.658;23.374;2022-09-17T09:12:01;93703.88;;;27.05;47.17
27958;BME280;15295;42.658;23.374;2022-09-17T09:14:47;93722.09;;;26.93;47.81
27958;BME280;15295;42.658;23.374;2022-09-17T09:17:20;93701.31;;;26.77;48.17
27958;BME280;15295;42.658;23.374;2022-09-17T09:19:55;93716.09;;;26.78;48.41
27958;BME280;15295;42.658;23.374;2022-09-17T09:22:49;93719.34;;;26.88;48.59
27958;BME280;15295;42.658;23.374;2022-09-17T09:28:36;93737.84;;;26.66;48.49
27958;BME280;15295;42.658;23.374;2022-09-17T09:31:19;93755.09;;;26.41;49.16
27958;BME280;15295;42.658;23.374;2022-09-17T09:34:11;93742.84;;;26.44;50.82
27958;BME280;15295;42.658;23.374;2022-09-17T09:36:38;93764.00;;;26.45;50.78
27958;BME280;15295;42.658;23.374;2022-09-17T09:39:27;93755.50;;;26.15;50.62
27958;BME280;15295;42.658;23.374;2022-09-17T09:42:18;93775.06;;;26.21;50.96
27958;BME280;15295;42.658;23.374;2022-09-17T09:48:29;93769.50;;;26.15;52.84
27958;BME280;15295;42.658;23.374;2022-09-17T09:57:02;93791.63;;;26.19;53.24
27958;BME280;15295;42.658;23.374;2022-09-17T09:59:32;93796.22;;;26.16;52.82
27958;BME280;15295;42.658;23.374;2022-09-17T10:02:00;93813.50;;;26.20;53.66
27958;BME280;15295;42.658;23.374;2022-09-17T10:04:28;93786.06;;;26.13;54.53
27958;BME280;15295;42.658;23.374;2022-09-17T10:07:04;93782.00;;;26.03;54.66
27958;BME280;15295;42.658;23.374;2022-09-17T10:09:31;93743.66;;;25.87;54.80
27958;BME280;15295;42.658;23.374;2022-09-17T10:12:17;93709.78;;;25.96;54.57
27958;BME280;15295;42.658;23.374;2022-09-17T10:14:47;93702.75;;;25.78;54.94
27958;BME280;15295;42.658;23.374;2022-09-17T10:17:29;93695.13;;;25.73;54.24
27958;BME280;15295;42.658;23.374;2022-09-17T10:22:52;93703.03;;;25.69;53.90
27958;BME280;15295;42.658;23.374;2022-09-17T10:25:33;93671.88;;;25.32;55.82
27958;BME280;15295;42.658;23.374;2022-09-17T10:28:37;93666.78;;;25.31;54.99
27958;BME280;15295;42.658;23.374;2022-09-17T10:31:06;93648.78;;;25.20;55.52
27958;BME280;15295;42.658;23.374;2022-09-17T10:33:38;93648.25;;;25.22;55.86
27958;BME280;15295;42.658;23.374;2022-09-17T10:36:05;93674.22;;;25.17;55.63
27958;BME280;15295;42.658;23.374;2022-09-17T10:38:35;93673.50;;;25.05;55.83
27958;BME280;15295;42.658;23.374;2022-09-17T10:41:21;93668.69;;;24.95;56.01
27958;BME280;15295;42.658;23.374;2022-09-17T10:44:16;93649.88;;;24.90;56.69
27958;BME280;15295;42.658;23.374;2022-09-17T10:46:43;93632.63;;;24.86;57.02
27958;BME280;15295;42.658;23.374;2022-09-17T10:57:24;93585.09;;;24.97;55.87
27958;BME280;15295;42.658;23.374;2022-09-17T11:12:39;93620.34;;;25.11;56.43
27958;BME280;15295;42.658;23.374;2022-09-17T11:15:29;93649.06;;;25.17;56.27
27958;BME280;15295;42.658;23.374;2022-09-17T11:26:45;93617.22;;;25.83;53.65
27958;BME280;15295;42.658;23.374;2022-09-17T11:37:13;93654.75;;;26.04;54.04
27958;BME280;15295;42.658;23.374;2022-09-17T11:39:56;93669.00;;;26.00;54.44
27958;BME280;15295;42.658;23.374;2022-09-17T11:42:30;93660.47;;;25.87;55.06
27958;BME280;15295;42.658;23.374;2022-09-17T11:45:02;93667.31;;;25.86;54.63
27958;BME280;15295;42.658;23.374;2022-09-17T11:47:32;93666.28;;;25.89;54.65
27958;BME280;15295;42.658;23.374;2022-09-17T11:50:13;93651.25;;;25.92;54.08
27958;BME280;15295;42.658;23.374;2022-09-17T11:52:51;93637.66;;;25.72;53.74
27958;BME280;15295;42.658;23.374;2022-09-17T11:55:36;93636.81;;;25.83;54.04
27958;BME280;15295;42.658;23.374;2022-09-17T11:58:31;93622.38;;;25.73;53.76
27958;BME280;15295;42.658;23.374;2022-09-17T12:01:05;93627.59;;;25.88;53.51
27958;BME280;15295;42.658;23.374;2022-09-17T12:03:42;93622.72;;;25.94;53.30
27958;BME280;15295;42.658;23.374;2022-09-17T12:06:17;93628.31;;;25.94;53.26
27958;BME280;15295;42.658;23.374;2022-09-17T12:08:47;93638.53;;;25.91;53.34
27958;BME280;15295;42.658;23.374;2022-09-17T12:11:20;93625.34;;;25.86;53.52
27958;BME280;15295;42.658;23.374;2022-09-17T12:13:51;93618.78;;;25.78;53.41
27958;BME280;15295;42.658;23.374;2022-09-17T12:16:42;93638.38;;;25.78;53.70
27958;BME280;15295;42.658;23.374;2022-09-17T12:19:48;93634.03;;;25.77;54.00
27958;BME280;15295;42.658;23.374;2022-09-17T12:22:20;93633.97;;;25.88;54.06
27958;BME280;15295;42.658;23.374;2022-09-17T12:24:51;93619.50;;;25.84;53.00
27958;BME280;15295;42.658;23.374;2022-09-17T12:30:13;93618.97;;;25.86;52.57
27958;BME280;15295;42.658;23.374;2022-09-17T12:38:23;93625.56;;;25.48;53.12
27958;BME280;15295;42.658;23.374;2022-09-17T12:41:20;93616.16;;;25.45;53.86
27958;BME280;15295;42.658;23.374;2022-09-17T12:49:22;93583.50;;;25.12;55.56
27958;BME280;15295;42.658;23.374;2022-09-17T12:51:58;93583.72;;;25.20;55.35
27958;BME280;15295;42.658;23.374;2022-09-17T13:00:15;93578.75;;;24.91;57.27
27958;BME280;15295;42.658;23.374;2022-09-17T13:10:40;93573.31;;;25.15;56.94
27958;BME280;15295;42.658;23.374;2022-09-17T13:21:53;93568.47;;;25.21;55.32
27958;BME280;15295;42.658;23.374;2022-09-17T13:24:26;93574.56;;;25.19;56.16
27958;BME280;15295;42.658;23.374;2022-09-17T13:26:55;93565.63;;;25.26;54.90
27958;BME280;15295;42.658;23.374;2022-09-17T13:37:55;93507.63;;;25.38;53.26
27958;BME280;15295;42.658;23.374;2022-09-17T13:40:26;93530.28;;;25.29;53.42
27958;BME280;15295;42.658;23.374;2022-09-17T13:42:55;93518.63;;;25.25;53.16
27958;BME280;15295;42.658;23.374;2022-09-17T13:45:23;93522.06;;;25.01;52.82
27958;BME280;15295;42.658;23.374;2022-09-17T13:47:54;93509.13;;;24.93;54.10
27958;BME280;15295;42.658;23.374;2022-09-17T13:50:33;93493.88;;;24.94;54.13
27958;BME280;15295;42.658;23.374;2022-09-17T13:55:37;93483.03;;;24.79;54.47
27958;BME280;15295;42.658;23.374;2022-09-17T13:58:09;93472.75;;;24.98;54.85
27958;BME280;15295;42.658;23.374;2022-09-17T14:01:06;93456.94;;;25.06;55.16
27958;BME280;15295;42.658;23.374;2022-09-17T14:06:46;93449.31;;;25.12;54.68
27958;BME280;15295;42.658;23.374;2022-09-17T14:09:39;93454.63;;;25.16;54.38
27958;BME280;15295;42.658;23.374;2022-09-17T14:20:52;93479.53;;;25.14;53.64
27958;BME280;15295;42.658;23.374;2022-09-17T14:23:19;93458.91;;;25.22;54.05
27958;BME280;15295;42.658;23.374;2022-09-17T14:25:49;93464.19;;;25.26;53.75
27958;BME280;15295;42.658;23.374;2022-09-17T14:30:54;93471.88;;;25.20;54.28
27958;BME280;15295;42.658;23.374;2022-09-17T14:33:26;93477.00;;;25.16;53.85
27958;BME280;15295;42.658;23.374;2022-09-17T14:36:10;93460.75;;;25.09;53.60
27958;BME280;15295;42.658;23.374;2022-09-17T14:38:49;93444.50;;;25.07;53.96
27958;BME280;15295;42.658;23.374;2022-09-17T14:41:23;93445.22;;;25.13;53.68
27958;BME280;15295;42.658;23.374;2022-09-17T14:44:05;93426.13;;;25.23;53.76
27958;BME280;15295;42.658;23.374;2022-09-17T14:49:27;93395.75;;;25.03;54.10
27958;BME280;15295;42.658;23.374;2022-09-17T14:51:57;93439.44;;;25.06;53.87
27958;BME280;15295;42.658;23.374;2022-09-17T14:56:56;93422.50;;;24.93;54.75
27958;BME280;15295;42.658;23.374;2022-09-17T14:59:45;93417.38;;;24.97;54.06
27958;BME280;15295;42.658;23.374;2022-09-17T15:02:37;93377.09;;;24.81;54.65
27958;BME280;15295;42.658;23.374;2022-09-17T15:05:16;93381.97;;;24.75;53.97
27958;BME280;15295;42.658;23.374;2022-09-17T15:07:51;93425.38;;;24.71;54.64
27958;BME280;15295;42.658;23.374;2022-09-17T15:10:28;93406.69;;;24.55;54.40
27958;BME280;15295;42.658;23.374;2022-09-17T15:12:55;93388.72;;;24.39;54.20
27958;BME280;15295;42.658;23.374;2022-09-17T15:15:25;93395.56;;;24.43;54.48
27958;BME280;15295;42.658;23.374;2022-09-17T15:17:52;93371.19;;;24.38;55.41
27958;BME280;15295;42.658;23.374;2022-09-17T15:20:27;93388.19;;;24.40;55.32
27958;BME280;15295;42.658;23.374;2022-09-17T15:25:34;93365.72;;;24.22;56.15
27958;BME280;15295;42.658;23.374;2022-09-17T15:28:21;93375.34;;;24.26;56.67
27958;BME280;15295;42.658;23.374;2022-09-17T15:30:51;93366.47;;;24.22;56.51
27958;BME280;15295;42.658;23.374;2022-09-17T15:33:18;93378.66;;;24.25;56.59
27958;BME280;15295;42.658;23.374;2022-09-17T15:36:24;93347.47;;;24.15;57.24
27958;BME280;15295;42.658;23.374;2022-09-17T15:38:50;93376.63;;;24.20;57.48
27958;BME280;15295;42.658;23.374;2022-09-17T15:43:47;93375.84;;;24.19;57.41
27958;BME280;15295;42.658;23.374;2022-09-17T15:46:29;93384.00;;;24.17;57.45
27958;BME280;15295;42.658;23.374;2022-09-17T15:49:01;93368.28;;;24.03;56.97
27958;BME280;15295;42.658;23.374;2022-09-17T15:51:35;93371.56;;;24.13;57.44
27958;BME280;15295;42.658;23.374;2022-09-17T15:54:03;93350.28;;;24.04;57.56
27958;BME280;15295;42.658;23.374;2022-09-17T15:56:34;93391.88;;;24.02;57.19
27958;BME280;15295;42.658;23.374;2022-09-17T15:59:25;93355.09;;;24.09;56.03
27958;BME280;15295;42.658;23.374;2022-09-17T16:01:53;93373.81;;;24.25;57.04
27958;BME280;15295;42.658;23.374;2022-09-17T16:04:30;93363.41;;;24.26;57.48
27958;BME280;15295;42.658;23.374;2022-09-17T16:12:13;93353.13;;;24.50;56.83
27958;BME280;15295;42.658;23.374;2022-09-17T16:14:46;93328.72;;;24.57;56.32
27958;BME280;15295;42.658;23.374;2022-09-17T16:17:26;93322.31;;;24.62;56.16
27958;BME280;15295;42.658;23.374;2022-09-17T16:19:59;93329.72;;;24.59;56.42
27958;BME280;15295;42.658;23.374;2022-09-17T16:22:25;93364.25;;;24.56;55.36
27958;BME280;15295;42.658;23.374;2022-09-17T16:24:51;93359.22;;;24.55;54.99
27958;BME280;15295;42.658;23.374;2022-09-17T16:27:21;93348.22;;;24.62;55.12
27958;BME280;15295;42.658;23.374;2022-09-17T16:29:49;93347.22;;;24.60;55.42
27958;BME280;15295;42.658;23.374;2022-09-17T16:32:16;93334.75;;;24.66;55.54
27958;BME280;15295;42.658;23.374;2022-09-17T16:34:42;93318.03;;;24.61;55.44
27958;BME280;15295;42.658;23.374;2022-09-17T16:37:08;93321.09;;;24.57;54.65
27958;BME280;15295;42.658;23.374;2022-09-17T16:39:36;93289.47;;;24.38;54.22
27958;BME280;15295;42.658;23.374;2022-09-17T16:42:05;93291.31;;;24.30;51.60
27958;BME280;15295;42.658;23.374;2022-09-17T16:44:32;93285.94;;;24.37;50.82
27958;BME280;15295;42.658;23.374;2022-09-17T16:46:58;93274.25;;;24.39;49.72
27958;BME280;15295;42.658;23.374;2022-09-17T16:49:31;93275.00;;;24.39;51.70
27958;BME280;15295;42.658;23.374;2022-09-17T16:52:05;93261.81;;;24.40;52.47
27958;BME280;15295;42.658;23.374;2022-09-17T16:54:38;93271.50;;;24.28;53.21
27958;BME280;15295;42.658;23.374;2022-09-17T16:57:03;93289.28;;;24.30;53.24
27958;BME280;15295;42.658;23.374;2022-09-17T16:59:35;93286.28;;;24.17;52.61
27958;BME280;15295;42.658;23.374;2022-09-17T17:02:00;93296.13;;;24.29;52.96
27958;BME280;15295;42.658;23.374;2022-09-17T17:04:26;93280.66;;;24.28;53.70
27958;BME280;15295;42.658;23.374;2022-09-17T17:06:51;93298.91;;;24.29;54.02
27958;BME280;15295;42.658;23.374;2022-09-17T17:09:17;93324.31;;;24.31;54.47
27958;BME280;15295;42.658;23.374;2022-09-17T17:11:42;93332.41;;;24.29;54.96
27958;BME280;15295;42.658;23.374;2022-09-17T17:14:08;93351.41;;;24.36;54.76
27958;BME280;15295;42.658;23.374;2022-09-17T17:16:33;93354.44;;;24.38;54.75
27958;BME280;15295;42.658;23.374;2022-09-17T17:19:02;93340.78;;;24.35;54.51
27958;BME280;15295;42.658;23.374;2022-09-17T17:21:27;93336.25;;;24.26;55.03
27958;BME280;15295;42.658;23.374;2022-09-17T17:23:55;93344.56;;;24.37;54.24